Montour, IA (50173)

6:13 AM CST on December 04, 2016 (GMT -0600)
Green Mountain | | Change Station
Active Advisory: Winter Weather Advisory

Elev 997 ft 42.12 °N, 92.83 °W | Updated 52 seconds ago

Light Snow
Light Snow Mist
31.9 °F
Feels Like 24 °F
N
10.0
Wind Variable Wind from SE

Today
High -- | Low -- °F
--% Chance of Precip.
Yesterday
High -- | Low -- °F
Precip. -- in
Pressure 30.02 in
Visibility 1.2 miles
Clouds Overcast 300 ft
Windchill 24 °F
Dew Point 30 °F
Humidity 95%
Rainfall 0.00 in
Snow Depth Not available.
7:22 AM 4:39 PM
Waxing Crescent, 22% visible
METAR KMIW 041153Z AUTO 15011KT 1 1/4SM -SN BR OVC003 01/01 A2999 RMK AO2 SLP165 P0000 60002 70003 T00060006 10006 20006 58023
Pressure 30.02 in
Visibility 1.2 miles
Clouds Overcast 300 ft
Windchill 24 °F
Dew Point 30 °F
Humidity 95%
Rainfall 0.00 in
Snow Depth Not available.
7:22 AM 4:39 PM
Waxing Crescent, 22% visible
METAR KMIW 041153Z AUTO 15011KT 1 1/4SM -SN BR OVC003 01/01 A2999 RMK AO2 SLP165 P0000 60002 70003 T00060006 10006 20006 58023

10-Day Weather Forecast

Almanac

Astronomy

Dec. 04, 2016 Rise Set
Actual Time
Civil Twilight
Nautical Twilight
Astronomical Twilight
Moon
Length of Visible Light
Length of Day
Tomorrow will be .
, % of the Moon is Illuminated

Today's Extremes

State Highs State Lows

Community

WunderPhotos

Upload Photos

1,955,591 photos uploaded!

WunderBlog® & News

Nearby

Air Quality

  Air Quality AQ Index Pollutant
Not available.

Snow Depth

Station Depth Elevation

Earthquake Activity

City Distance Mag. Time & Date
Minimum magnitude displayed is 2.5.

Coastal Water Temperatures

Place Temperature

Stations

Nearby Weather Stations

Station Location Temp. Windchill Dew Point Humidity Wind Precip. Elev Updated Type
                   

Watches & Warnings

Winter Weather Advisory
Issued: 3:16 AM CST Dec. 4, 2016 – National Weather Service

... Winter Weather Advisory remains in effect until 11 am CST this
morning...

* short term trends... little change is expected through at least
sunrise with steady light to moderate snow.

* Storm total snow... snow accumulations will generally be in the 2
to 3 inch range... locally to 4 in spots... before ending Sunday
morning. Most of those higher accumulations will be on
vegetation with lesser amounts on roads due to melting and
treatment.

* Winds/visibility... southeast winds may exceed 10 mph at times
but will have little impact. Visibilities will be steady from
just under a mile to around two miles.

* Impacts... primary impacts will be travel conditions. The
consistency of the snow will make it slushy and slippery on
roadways... especially bridges and overpasses.

Precautionary/preparedness actions...

A Winter Weather Advisory for snow means that periods of snow
will cause primarily travel difficulties. Motorists are urged to
slow down... drive defensively and exercise caution on snow covered
roads this morning as many will be unaccustomed to winter driving
conditions.



Small